createdAt,value
2019-05-10T00:00:29.990Z,88.00
2019-05-10T00:03:16.545Z,87.90
2019-05-10T00:06:03.332Z,87.90
2019-05-10T00:08:46.818Z,87.90
2019-05-10T00:11:19.861Z,88.00
2019-05-10T00:14:06.367Z,88.10
2019-05-10T00:16:35.229Z,88.40
2019-05-10T00:19:03.919Z,88.60
2019-05-10T00:21:32.603Z,88.90
2019-05-10T00:24:01.089Z,89.10
2019-05-10T00:26:29.778Z,88.80
2019-05-10T00:28:58.388Z,88.80
2019-05-10T00:31:26.945Z,88.90
2019-05-10T00:33:55.479Z,89.00
2019-05-10T00:36:24.113Z,89.00
2019-05-10T00:38:52.710Z,88.90
2019-05-10T00:41:21.335Z,88.60
2019-05-10T00:43:50.022Z,88.50
2019-05-10T00:46:18.582Z,88.60
2019-05-10T00:48:47.250Z,88.40
2019-05-10T00:51:16.017Z,88.40
2019-05-10T00:53:44.629Z,88.50
2019-05-10T00:56:13.342Z,88.10
2019-05-10T00:58:41.957Z,88.40
2019-05-10T01:01:10.730Z,88.30
2019-05-10T01:03:39.265Z,88.10
2019-05-10T01:06:07.841Z,88.40
2019-05-10T01:08:36.380Z,87.90
2019-05-10T01:11:05.011Z,88.30
2019-05-10T01:13:33.637Z,88.30
2019-05-10T01:16:02.690Z,88.40
2019-05-10T01:18:31.211Z,88.50
2019-05-10T01:20:59.841Z,88.50
2019-05-10T01:23:28.510Z,88.80
2019-05-10T01:25:57.136Z,88.90
2019-05-10T01:28:25.810Z,89.20
2019-05-10T01:30:54.375Z,89.40
2019-05-10T01:33:22.912Z,89.90
2019-05-10T01:35:51.587Z,89.60
2019-05-10T01:38:20.182Z,90.00
2019-05-10T01:40:48.790Z,90.10
2019-05-10T01:43:17.426Z,90.20
2019-05-10T01:45:46.033Z,90.30
2019-05-10T01:48:14.590Z,90.40
2019-05-10T01:50:44.184Z,90.40
2019-05-10T01:53:12.885Z,90.40
2019-05-10T01:55:51.508Z,90.50
2019-05-10T01:58:11.697Z,90.70
2019-05-10T02:00:40.219Z,90.70
2019-05-10T02:03:08.853Z,90.70
2019-05-10T02:05:37.459Z,90.90
2019-05-10T02:08:06.194Z,90.80
2019-05-10T02:10:34.763Z,91.20
2019-05-10T02:13:03.395Z,90.90
2019-05-10T02:15:32.010Z,91.10
2019-05-10T02:18:00.571Z,91.10
2019-05-10T02:20:29.050Z,91.20
2019-05-10T02:22:57.664Z,91.20
2019-05-10T02:25:26.262Z,91.20
2019-05-10T02:27:54.834Z,91.20
2019-05-10T02:30:28.248Z,91.30
2019-05-10T02:32:56.879Z,91.50
2019-05-10T02:35:25.431Z,91.40
2019-05-10T02:37:54.143Z,91.40
2019-05-10T02:40:22.842Z,91.60
2019-05-10T02:42:51.459Z,91.60
2019-05-10T02:45:20.362Z,91.70
2019-05-10T02:47:48.913Z,91.60
2019-05-10T02:50:17.721Z,92.00
2019-05-10T02:52:46.413Z,91.70
2019-05-10T02:55:15.111Z,91.80
2019-05-10T02:57:44.420Z,91.80
2019-05-10T03:00:13.402Z,91.90
2019-05-10T03:02:43.577Z,91.90
2019-05-10T03:05:12.295Z,92.00
2019-05-10T03:07:40.979Z,92.00
2019-05-10T03:10:11.551Z,92.00
2019-05-10T03:12:41.594Z,92.00
2019-05-10T03:15:12.215Z,91.90
2019-05-10T03:17:41.942Z,92.00
2019-05-10T03:20:11.639Z,91.90
2019-05-10T03:22:43.895Z,92.10
2019-05-10T03:25:13.337Z,92.20
2019-05-10T03:27:42.327Z,92.20
2019-05-10T03:30:11.271Z,92.30
2019-05-10T03:32:39.987Z,92.40
2019-05-10T03:35:09.616Z,92.50
2019-05-10T03:37:38.876Z,92.50
2019-05-10T03:40:08.759Z,92.70
2019-05-10T03:42:37.445Z,92.80
2019-05-10T03:45:08.762Z,92.70
2019-05-10T03:47:37.371Z,92.70
2019-05-10T03:50:07.396Z,92.70
2019-05-10T03:52:36.134Z,93.20
2019-05-10T03:55:05.846Z,92.90
2019-05-10T03:57:34.458Z,93.00
2019-05-10T04:00:04.791Z,92.80
2019-05-10T04:02:33.334Z,92.90
2019-05-10T04:05:01.906Z,93.00
2019-05-10T04:07:30.606Z,92.80
2019-05-10T04:09:59.407Z,92.90
2019-05-10T04:12:28.095Z,93.00
2019-05-10T04:14:56.628Z,93.00
2019-05-10T04:17:25.286Z,93.00
2019-05-10T04:19:53.815Z,93.00
2019-05-10T04:22:22.515Z,93.00
2019-05-10T04:24:53.136Z,93.00
2019-05-10T04:27:31.294Z,93.00
2019-05-10T04:29:52.116Z,92.80
2019-05-10T04:32:20.760Z,92.70
2019-05-10T04:34:49.551Z,92.60
2019-05-10T04:37:18.258Z,92.90
2019-05-10T04:39:47.736Z,92.70
2019-05-10T04:42:16.695Z,92.50
2019-05-10T04:44:46.128Z,92.50
2019-05-10T04:47:21.265Z,92.40
2019-05-10T04:49:49.854Z,92.30
2019-05-10T04:52:18.455Z,92.20
2019-05-10T04:54:47.058Z,92.20
2019-05-10T04:57:15.872Z,92.20
2019-05-10T04:59:44.780Z,92.10
2019-05-10T05:02:13.466Z,91.80
2019-05-10T05:04:42.078Z,91.70
2019-05-10T05:07:10.712Z,91.80
2019-05-10T05:09:39.389Z,91.60
2019-05-10T05:12:08.163Z,91.50
2019-05-10T05:14:36.767Z,91.30
2019-05-10T05:17:05.522Z,91.40
2019-05-10T05:19:34.175Z,91.20
2019-05-10T05:22:02.874Z,91.10
2019-05-10T05:24:31.546Z,90.90
2019-05-10T05:27:00.202Z,90.70
2019-05-10T05:29:28.741Z,90.20
2019-05-10T05:32:01.384Z,90.00
2019-05-10T05:34:27.662Z,89.50
2019-05-10T05:36:56.290Z,89.00
2019-05-10T05:39:24.834Z,89.20
2019-05-10T05:41:56.597Z,88.80
2019-05-10T05:44:26.221Z,88.80
2019-05-10T05:46:53.872Z,89.00
2019-05-10T05:49:23.973Z,88.60
2019-05-10T05:51:52.723Z,88.30
2019-05-10T05:54:22.691Z,87.50
2019-05-10T05:56:53.105Z,87.50
2019-05-10T05:59:23.623Z,87.00
2019-05-10T06:01:51.965Z,86.40
2019-05-10T06:04:21.222Z,86.10
2019-05-10T06:06:53.696Z,86.00
2019-05-10T06:09:20.413Z,86.20
2019-05-10T06:11:49.100Z,86.90
2019-05-10T06:14:17.804Z,86.20
2019-05-10T06:16:51.050Z,86.90
2019-05-10T06:19:20.521Z,86.90
2019-05-10T06:21:48.555Z,87.10
2019-05-10T06:24:17.254Z,87.70
2019-05-10T06:26:45.803Z,86.90
2019-05-10T06:29:17.663Z,86.30
2019-05-10T06:31:44.710Z,87.20
2019-05-10T06:34:13.386Z,88.00
2019-05-10T06:36:42.052Z,88.30
2019-05-10T06:39:30.036Z,88.30
2019-05-10T06:41:58.631Z,88.30
2019-05-10T06:44:31.424Z,88.10
2019-05-10T06:47:02.168Z,87.50
2019-05-10T06:49:27.930Z,88.30
2019-05-10T06:51:56.694Z,87.70
2019-05-10T06:54:25.230Z,87.70
2019-05-10T06:56:56.837Z,87.60
2019-05-10T06:59:26.364Z,86.60
2019-05-10T07:01:55.131Z,86.40
2019-05-10T07:04:23.766Z,86.00
2019-05-10T07:06:52.322Z,86.50
2019-05-10T07:09:20.863Z,86.10
2019-05-10T07:11:49.548Z,85.80
2019-05-10T07:14:18.200Z,86.40
2019-05-10T07:16:46.946Z,86.40
2019-05-10T07:19:15.453Z,86.20
2019-05-10T07:21:47.905Z,86.80
2019-05-10T07:24:18.211Z,86.60
2019-05-10T07:26:46.836Z,87.50
2019-05-10T07:29:29.110Z,88.80
2019-05-10T07:31:45.850Z,87.50
2019-05-10T07:34:15.845Z,88.90
2019-05-10T07:36:44.864Z,88.10
2019-05-10T07:39:13.583Z,88.90
2019-05-10T07:41:42.380Z,90.00
2019-05-10T07:44:10.958Z,90.30
2019-05-10T07:46:45.689Z,90.30
2019-05-10T07:49:09.907Z,90.50
2019-05-10T07:51:38.585Z,90.30
2019-05-10T07:54:07.240Z,90.20
2019-05-10T07:56:38.994Z,89.20
2019-05-10T07:59:06.203Z,89.30
2019-05-10T08:01:35.039Z,90.40
2019-05-10T08:04:03.910Z,90.60
2019-05-10T08:06:40.369Z,91.00
2019-05-10T08:09:06.471Z,91.40
2019-05-10T08:11:33.137Z,92.20
2019-05-10T08:14:06.171Z,92.30
2019-05-10T08:16:31.904Z,92.90
2019-05-10T08:19:00.936Z,93.00
2019-05-10T08:21:32.232Z,92.90
2019-05-10T08:24:05.150Z,92.60
2019-05-10T08:26:32.762Z,92.20
2019-05-10T08:29:02.109Z,92.40
2019-05-10T08:31:39.910Z,91.50
2019-05-10T08:34:02.188Z,90.50
2019-05-10T08:36:32.193Z,90.10
2019-05-10T08:39:10.040Z,88.30
2019-05-10T08:41:32.618Z,88.30
2019-05-10T08:44:04.574Z,83.60
2019-05-10T08:46:40.158Z,84.00
2019-05-10T08:49:02.267Z,80.30
2019-05-10T08:51:32.295Z,77.80
2019-05-10T08:54:01.807Z,77.00
2019-05-10T08:56:33.033Z,75.50
2019-05-10T08:59:03.632Z,77.50
2019-05-10T09:01:38.435Z,76.50
2019-05-10T09:04:06.573Z,77.90
2019-05-10T09:06:32.732Z,75.70
2019-05-10T09:09:03.589Z,75.50
2019-05-10T09:11:32.808Z,75.00
2019-05-10T09:14:03.249Z,74.30
2019-05-10T09:16:39.246Z,74.00
2019-05-10T09:19:02.674Z,74.80
2019-05-10T09:21:32.165Z,74.70
2019-05-10T09:24:03.249Z,73.70
2019-05-10T09:26:32.194Z,71.10
2019-05-10T09:29:01.711Z,71.50
2019-05-10T09:31:32.644Z,71.40
2019-05-10T09:34:02.474Z,72.10
2019-05-10T09:36:36.033Z,71.60
2019-05-10T09:39:03.390Z,73.30
2019-05-10T09:41:33.784Z,73.90
2019-05-10T09:44:03.065Z,73.30
2019-05-10T09:46:32.491Z,72.50
2019-05-10T09:49:11.503Z,73.10
2019-05-10T09:51:33.162Z,73.50
2019-05-10T09:54:02.035Z,73.50
2019-05-10T09:56:33.015Z,74.50
2019-05-10T09:59:00.979Z,73.40
2019-05-10T10:01:29.625Z,73.90
2019-05-10T10:04:01.672Z,73.70
2019-05-10T10:06:29.756Z,75.40
2019-05-10T10:09:00.912Z,79.60
2019-05-10T10:11:28.990Z,83.90
2019-05-10T10:13:59.507Z,88.70
2019-05-10T10:16:28.260Z,90.30
2019-05-10T10:18:57.127Z,91.90
2019-05-10T10:21:35.020Z,91.40
2019-05-10T10:23:59.948Z,90.50
2019-05-10T10:26:26.889Z,88.90
2019-05-10T10:28:59.553Z,89.40
2019-05-10T10:31:30.407Z,90.00
2019-05-10T10:33:59.661Z,87.80
2019-05-10T10:36:27.466Z,90.00
2019-05-10T10:38:56.171Z,90.20
2019-05-10T10:41:31.183Z,90.70
2019-05-10T10:43:54.999Z,91.00
2019-05-10T10:46:23.650Z,91.50
2019-05-10T10:48:52.222Z,91.80
2019-05-10T10:51:20.769Z,90.70
2019-05-10T10:53:49.443Z,89.90
2019-05-10T10:56:18.125Z,88.60
2019-05-10T10:58:49.697Z,88.60
2019-05-10T11:01:24.991Z,90.10
2019-05-10T11:03:49.032Z,90.10
2019-05-10T11:06:17.868Z,89.70
2019-05-10T11:08:46.513Z,89.40
2019-05-10T11:11:15.125Z,86.20
2019-05-10T11:13:45.760Z,80.60
2019-05-10T11:16:15.695Z,80.70
2019-05-10T11:18:44.303Z,83.40
2019-05-10T11:21:12.988Z,85.10
2019-05-10T11:23:42.054Z,85.90
2019-05-10T11:26:11.040Z,85.50
2019-05-10T11:28:43.927Z,83.30
2019-05-10T11:31:11.421Z,79.20
2019-05-10T11:33:41.417Z,77.20
2019-05-10T11:36:11.487Z,78.00
2019-05-10T11:38:42.010Z,78.30
2019-05-10T11:41:13.587Z,77.70
2019-05-10T11:43:41.932Z,78.10
2019-05-10T11:46:11.759Z,79.70
2019-05-10T11:48:42.156Z,80.30
2019-05-10T11:51:16.032Z,76.40
2019-05-10T11:53:41.655Z,74.30
2019-05-10T11:56:14.152Z,75.40
2019-05-10T11:59:04.404Z,72.10
2019-05-10T12:03:42.362Z,63.60
2019-05-10T12:06:12.128Z,60.80
2019-05-10T12:08:41.814Z,63.20
2019-05-10T12:11:25.482Z,66.20
2019-05-10T12:13:41.153Z,69.70
2019-05-10T12:16:12.456Z,72.20
2019-05-10T12:18:50.248Z,72.50
2019-05-10T12:21:11.324Z,69.80
2019-05-10T12:26:19.410Z,65.70
2019-05-10T12:26:50.524Z,65.90
2019-05-10T12:28:40.946Z,62.40
2019-05-10T12:31:15.147Z,59.90
2019-05-10T12:33:42.974Z,60.90
2019-05-10T12:36:13.038Z,63.50
2019-05-10T12:38:40.387Z,60.20
2019-05-10T12:41:08.987Z,60.70
2019-05-10T12:43:37.550Z,61.30
2019-05-10T12:46:06.322Z,60.80
2019-05-10T12:48:35.951Z,60.50
2019-05-10T12:51:11.380Z,58.90
2019-05-10T12:53:36.828Z,58.70
2019-05-10T12:56:05.678Z,61.10
2019-05-10T12:58:34.245Z,63.30
2019-05-10T13:01:02.858Z,66.10
2019-05-10T13:03:33.693Z,68.50
2019-05-10T13:06:01.695Z,68.70
2019-05-10T13:08:30.338Z,69.60
2019-05-10T13:10:59.058Z,68.00
2019-05-10T13:13:30.088Z,64.50
2019-05-10T13:15:57.807Z,56.80
2019-05-10T13:18:48.113Z,54.50
2019-05-10T13:20:56.870Z,51.60
2019-05-10T13:23:25.804Z,50.00
2019-05-10T13:25:54.483Z,51.20
2019-05-10T13:28:23.633Z,51.60
2019-05-10T13:30:54.115Z,49.20
2019-05-10T13:33:28.925Z,47.10
2019-05-10T13:35:56.677Z,46.80
2019-05-10T13:38:26.635Z,46.10
2019-05-10T13:40:55.236Z,44.10
2019-05-10T13:43:26.629Z,43.90
2019-05-10T13:45:54.441Z,42.40
2019-05-10T13:48:26.119Z,41.90
2019-05-10T13:50:53.337Z,41.50
2019-05-10T13:53:23.283Z,42.00
2019-05-10T13:55:51.927Z,42.90
2019-05-10T13:58:20.542Z,41.70
2019-05-10T14:00:49.199Z,40.30
2019-05-10T14:03:17.818Z,43.10
2019-05-10T14:05:46.484Z,43.00
2019-05-10T14:08:15.339Z,43.70
2019-05-10T14:10:43.920Z,42.10
2019-05-10T14:13:16.376Z,40.60
2019-05-10T14:15:42.895Z,41.70
2019-05-10T14:18:11.545Z,42.00
2019-05-10T14:20:40.227Z,42.30
2019-05-10T14:23:09.092Z,41.80
2019-05-10T14:25:38.923Z,43.40
2019-05-10T14:28:09.514Z,44.70
2019-05-10T14:30:38.405Z,46.20
2019-05-10T14:33:08.729Z,49.50
2019-05-10T14:35:37.436Z,52.30
2019-05-10T14:38:08.451Z,50.20
2019-05-10T14:40:36.348Z,49.50
2019-05-10T14:43:04.902Z,48.90
2019-05-10T14:45:33.486Z,47.60
2019-05-10T14:48:02.201Z,48.20
2019-05-10T14:50:30.902Z,50.80
2019-05-10T14:52:59.445Z,53.00
2019-05-10T14:55:34.600Z,54.20
2019-05-10T14:57:58.433Z,55.30
2019-05-10T15:00:27.105Z,54.70
2019-05-10T15:02:56.653Z,55.10
2019-05-10T15:05:26.007Z,55.20
2019-05-10T15:07:54.552Z,55.60
2019-05-10T15:10:23.231Z,55.00
2019-05-10T15:12:51.935Z,55.70
2019-05-10T15:15:20.713Z,55.90
2019-05-10T15:17:55.021Z,56.20
2019-05-10T15:20:19.988Z,56.10
2019-05-10T15:22:48.543Z,57.30
2019-05-10T15:25:17.233Z,58.00
2019-05-10T15:27:45.793Z,58.70
2019-05-10T15:30:14.578Z,58.80
2019-05-10T15:32:43.145Z,59.30
2019-05-10T15:35:11.946Z,59.90
2019-05-10T15:37:45.769Z,59.70
2019-05-10T15:40:11.035Z,59.50
2019-05-10T15:42:39.568Z,61.10
2019-05-10T15:45:12.086Z,61.80
2019-05-10T15:47:50.536Z,61.70
2019-05-10T15:50:09.761Z,61.60
2019-05-10T15:52:39.733Z,62.40
2019-05-10T15:55:08.800Z,62.60
2019-05-10T15:57:37.465Z,64.70
2019-05-10T16:00:07.335Z,68.50
2019-05-10T16:02:35.945Z,69.50
2019-05-10T16:05:23.246Z,69.10
2019-05-10T16:07:37.435Z,69.30
2019-05-10T16:10:06.761Z,68.40
2019-05-10T16:12:37.876Z,67.30
2019-05-10T16:15:07.139Z,67.50
2019-05-10T16:17:35.820Z,67.20
2019-05-10T16:20:05.215Z,68.00
2019-05-10T16:22:33.905Z,69.00
2019-05-10T16:25:02.866Z,68.60
2019-05-10T16:27:34.111Z,69.10
2019-05-10T16:30:01.917Z,69.30
2019-05-10T16:32:34.753Z,69.10
2019-05-10T16:35:05.865Z,69.30
2019-05-10T16:37:30.964Z,69.90
2019-05-10T16:39:59.506Z,69.60
2019-05-10T16:42:34.547Z,67.10
2019-05-10T16:44:58.359Z,67.50
2019-05-10T16:47:27.180Z,68.30
2019-05-10T16:49:55.766Z,66.30
2019-05-10T16:52:26.116Z,67.90
2019-05-10T16:54:58.200Z,68.60
2019-05-10T16:57:24.917Z,68.40
2019-05-10T16:59:53.621Z,69.00
2019-05-10T17:02:22.333Z,68.60
2019-05-10T17:04:50.933Z,69.30
2019-05-10T17:07:20.646Z,68.80
2019-05-10T17:09:54.124Z,69.10
2019-05-10T17:12:27.569Z,69.20
2019-05-10T17:15:02.272Z,68.60
2019-05-10T17:17:31.129Z,68.50
2019-05-10T17:19:58.693Z,68.50
2019-05-10T17:22:27.291Z,69.30
2019-05-10T17:24:57.050Z,69.30
2019-05-10T17:27:26.265Z,69.50
2019-05-10T17:29:54.855Z,69.60
2019-05-10T17:32:24.546Z,70.10
2019-05-10T17:34:53.695Z,70.20
2019-05-10T17:37:22.226Z,70.50
2019-05-10T17:39:53.618Z,70.80
2019-05-10T17:42:21.070Z,71.50
2019-05-10T17:44:49.561Z,71.60
2019-05-10T17:47:18.098Z,72.30
2019-05-10T17:49:46.823Z,72.60
2019-05-10T17:52:15.406Z,72.50
2019-05-10T17:54:44.006Z,73.20
2019-05-10T17:57:16.882Z,73.40
2019-05-10T17:59:46.972Z,73.50
2019-05-10T18:02:13.293Z,73.20
2019-05-10T18:04:41.929Z,73.40
2019-05-10T18:07:10.647Z,73.40
2019-05-10T18:09:39.236Z,73.50
2019-05-10T18:12:07.817Z,73.80
2019-05-10T18:14:36.305Z,73.30
2019-05-10T18:17:07.221Z,74.00
2019-05-10T18:19:35.206Z,74.30
2019-05-10T18:22:06.464Z,75.00
2019-05-10T18:24:36.352Z,74.50
2019-05-10T18:27:04.482Z,74.80
2019-05-10T18:29:33.068Z,75.70
2019-05-10T18:32:01.590Z,75.90
2019-05-10T18:34:33.070Z,75.60
2019-05-10T18:37:00.338Z,76.20
2019-05-10T18:39:28.968Z,76.30
2019-05-10T18:41:57.554Z,76.20
2019-05-10T18:44:26.112Z,76.30
2019-05-10T18:46:54.707Z,76.80
2019-05-10T18:49:23.256Z,76.70
2019-05-10T18:51:51.851Z,76.80
2019-05-10T18:54:20.541Z,77.10
2019-05-10T18:56:49.112Z,77.30
2019-05-10T18:59:17.759Z,77.30
2019-05-10T19:01:46.471Z,77.90
2019-05-10T19:04:15.739Z,77.70
2019-05-10T19:06:50.219Z,77.40
2019-05-10T19:09:14.869Z,78.40
2019-05-10T19:11:43.579Z,78.60
2019-05-10T19:14:12.399Z,78.90
2019-05-10T19:16:41.122Z,79.20
2019-05-10T19:19:09.796Z,79.00
2019-05-10T19:21:38.461Z,79.40
2019-05-10T19:24:07.143Z,79.60
2019-05-10T19:26:35.750Z,79.70
2019-05-10T19:29:06.746Z,79.40
2019-05-10T19:31:37.890Z,80.00
2019-05-10T19:34:09.134Z,80.50
2019-05-10T19:36:35.292Z,80.30
2019-05-10T19:39:05.550Z,80.70
2019-05-10T19:41:34.167Z,81.00
2019-05-10T19:44:04.605Z,80.60
2019-05-10T19:46:39.329Z,81.30
2019-05-10T19:49:07.700Z,81.80
2019-05-10T19:51:34.305Z,82.80
2019-05-10T19:54:02.935Z,83.50
2019-05-10T19:56:37.075Z,83.40
2019-05-10T19:59:05.390Z,83.70
2019-05-10T20:01:32.268Z,84.00
2019-05-10T20:04:00.825Z,84.40
2019-05-10T20:06:29.379Z,84.20
2019-05-10T20:08:58.009Z,84.50
2019-05-10T20:11:26.539Z,84.50
2019-05-10T20:13:55.129Z,85.40
2019-05-10T20:16:23.714Z,84.70
2019-05-10T20:18:52.349Z,84.30
2019-05-10T20:21:20.954Z,84.10
2019-05-10T20:23:49.531Z,83.90
2019-05-10T20:26:18.075Z,83.70
2019-05-10T20:28:46.662Z,83.60
2019-05-10T20:31:15.279Z,83.00
2019-05-10T20:33:43.957Z,82.70
2019-05-10T20:36:13.246Z,82.50
2019-05-10T20:38:41.887Z,82.00
2019-05-10T20:41:10.646Z,80.30
2019-05-10T20:43:39.311Z,80.90
2019-05-10T20:46:09.666Z,80.50
2019-05-10T20:48:38.063Z,80.60
2019-05-10T20:51:06.786Z,79.60
2019-05-10T20:53:35.533Z,80.00
2019-05-10T20:56:04.202Z,81.80
2019-05-10T20:58:32.684Z,81.70
2019-05-10T21:01:01.306Z,81.60
2019-05-10T21:03:29.898Z,82.30
2019-05-10T21:05:58.458Z,82.80
2019-05-10T21:08:27.021Z,82.80
2019-05-10T21:10:55.564Z,83.90
2019-05-10T21:13:24.171Z,82.50
2019-05-10T21:15:52.774Z,83.10
2019-05-10T21:18:21.324Z,83.70
2019-05-10T21:20:49.882Z,84.00
2019-05-10T21:23:18.491Z,84.20
2019-05-10T21:25:47.121Z,83.30
2019-05-10T21:28:15.675Z,83.30
2019-05-10T21:30:44.233Z,83.50
2019-05-10T21:33:12.895Z,83.00
2019-05-10T21:35:41.514Z,83.60
2019-05-10T21:38:10.055Z,83.80
2019-05-10T21:40:38.693Z,83.40
2019-05-10T21:43:07.275Z,83.70
2019-05-10T21:45:35.975Z,83.70
2019-05-10T21:48:04.695Z,83.80
2019-05-10T21:50:33.389Z,82.90
2019-05-10T21:53:02.076Z,83.10
2019-05-10T21:55:30.751Z,83.60
2019-05-10T21:57:59.291Z,83.00
2019-05-10T22:00:29.832Z,83.30
2019-05-10T22:02:58.435Z,83.60
2019-05-10T22:05:27.094Z,83.30
2019-05-10T22:07:55.674Z,83.50
2019-05-10T22:10:24.484Z,82.90
2019-05-10T22:12:53.131Z,83.20
2019-05-10T22:15:21.801Z,82.90
2019-05-10T22:17:50.459Z,84.00
2019-05-10T22:20:19.057Z,82.90
2019-05-10T22:22:47.773Z,83.30
2019-05-10T22:25:16.370Z,83.10
2019-05-10T22:27:44.950Z,83.30
2019-05-10T22:30:13.958Z,83.40
2019-05-10T22:32:42.541Z,84.20
2019-05-10T22:35:11.342Z,83.60
2019-05-10T22:37:39.968Z,83.70
2019-05-10T22:40:08.707Z,84.20
2019-05-10T22:42:37.381Z,84.40
2019-05-10T22:45:07.490Z,84.50
2019-05-10T22:47:36.095Z,85.10
2019-05-10T22:50:06.538Z,85.30
2019-05-10T22:52:35.305Z,85.50
2019-05-10T22:55:04.719Z,85.60
2019-05-10T22:57:33.390Z,85.60
2019-05-10T23:00:02.330Z,85.90
2019-05-10T23:02:31.016Z,85.80
2019-05-10T23:04:59.739Z,86.90
2019-05-10T23:07:28.366Z,86.30
2019-05-10T23:09:57.006Z,86.20
2019-05-10T23:12:25.610Z,86.70
2019-05-10T23:14:54.209Z,86.70
2019-05-10T23:17:22.793Z,86.70
2019-05-10T23:19:51.418Z,86.60
2019-05-10T23:22:20.257Z,86.90
2019-05-10T23:24:48.856Z,86.80
2019-05-10T23:27:17.926Z,86.40
2019-05-10T23:29:46.549Z,86.50
2019-05-10T23:32:15.159Z,86.80
2019-05-10T23:34:43.741Z,86.70
2019-05-10T23:37:12.478Z,86.70
2019-05-10T23:39:41.540Z,87.30
2019-05-10T23:42:10.221Z,88.20
2019-05-10T23:44:38.934Z,88.80
2019-05-10T23:47:07.682Z,89.20
2019-05-10T23:49:36.346Z,90.00
2019-05-10T23:52:05.924Z,90.00
2019-05-10T23:54:34.584Z,90.20
2019-05-10T23:57:03.252Z,90.30
2019-05-10T23:59:31.915Z,90.80
